createdAt,value
2023-05-10T00:00:54.576Z,72.09
2023-05-10T00:01:54.624Z,72.42
2023-05-10T00:02:54.688Z,72.21
2023-05-10T00:03:54.664Z,72.61
2023-05-10T00:04:54.682Z,72.58
2023-05-10T00:05:54.686Z,73.05
2023-05-10T00:06:54.738Z,72.90
2023-05-10T00:07:54.818Z,72.72
2023-05-10T00:08:54.794Z,72.41
2023-05-10T00:09:54.811Z,72.27
2023-05-10T00:10:54.946Z,72.54
2023-05-10T00:11:54.917Z,72.49
2023-05-10T00:12:55.014Z,72.62
2023-05-10T00:13:55.036Z,72.73
2023-05-10T00:14:55.043Z,72.92
2023-05-10T00:15:55.121Z,72.02
2023-05-10T00:16:55.315Z,72.34
2023-05-10T00:17:55.337Z,72.42
2023-05-10T00:18:55.296Z,72.26
2023-05-10T00:19:55.339Z,72.19
2023-05-10T00:20:55.360Z,72.27
2023-05-10T00:21:55.362Z,72.22
2023-05-10T00:22:55.428Z,72.22
2023-05-10T00:23:55.459Z,72.12
2023-05-10T00:24:55.511Z,72.33
2023-05-10T00:25:55.506Z,72.32
2023-05-10T00:26:55.562Z,72.19
2023-05-10T00:27:55.629Z,71.66
2023-05-10T00:28:55.612Z,71.54
2023-05-10T00:29:55.665Z,71.83
2023-05-10T00:30:55.627Z,71.25
2023-05-10T00:31:55.662Z,71.11
2023-05-10T00:32:55.639Z,70.91
2023-05-10T00:33:55.612Z,71.27
2023-05-10T00:34:55.646Z,71.26
2023-05-10T00:35:55.604Z,70.92
2023-05-10T00:36:55.664Z,71.05
2023-05-10T00:37:55.666Z,71.54
2023-05-10T00:38:55.645Z,71.17
2023-05-10T00:39:55.686Z,71.39
2023-05-10T00:40:55.695Z,70.87
2023-05-10T00:41:55.744Z,70.76
2023-05-10T00:42:55.882Z,70.57
2023-05-10T00:43:55.909Z,70.99
2023-05-10T00:44:55.888Z,70.85
2023-05-10T00:45:55.978Z,70.51
2023-05-10T00:46:55.989Z,70.58
2023-05-10T00:47:56.143Z,70.78
2023-05-10T00:48:56.092Z,70.20
2023-05-10T00:49:56.144Z,70.03
2023-05-10T00:50:56.158Z,70.42
2023-05-10T00:51:56.174Z,70.14
2023-05-10T00:52:56.224Z,69.70
2023-05-10T00:53:56.226Z,70.20
2023-05-10T00:54:56.276Z,69.79
2023-05-10T00:55:56.261Z,69.95
2023-05-10T00:56:56.810Z,70.08
2023-05-10T00:57:56.282Z,69.86
2023-05-10T00:58:56.282Z,69.86
2023-05-10T00:59:56.389Z,70.16
2023-05-10T01:00:56.465Z,70.07
2023-05-10T01:01:56.447Z,69.37
2023-05-10T01:02:56.580Z,69.70
2023-05-10T01:03:56.466Z,68.89
2023-05-10T01:04:56.586Z,68.50
2023-05-10T01:05:56.582Z,68.53
2023-05-10T01:06:56.664Z,68.34
2023-05-10T01:07:56.696Z,68.10
2023-05-10T01:08:56.714Z,67.55
2023-05-10T01:09:56.761Z,67.32
2023-05-10T01:10:56.690Z,67.03
2023-05-10T01:11:56.782Z,66.50
2023-05-10T01:12:56.920Z,66.90
2023-05-10T01:13:56.875Z,67.94
2023-05-10T01:14:56.956Z,67.71
2023-05-10T01:15:57.078Z,67.69
2023-05-10T01:16:57.070Z,67.67
2023-05-10T01:17:57.147Z,67.60
2023-05-10T01:18:57.166Z,67.06
2023-05-10T01:19:57.305Z,66.44
2023-05-10T01:20:57.362Z,65.97
2023-05-10T01:21:57.386Z,65.91
2023-05-10T01:22:57.443Z,65.96
2023-05-10T01:23:57.508Z,66.20
2023-05-10T01:24:57.551Z,65.72
2023-05-10T01:25:57.507Z,65.46
2023-05-10T01:26:57.546Z,65.39
2023-05-10T01:27:57.561Z,65.29
2023-05-10T01:28:57.550Z,65.02
2023-05-10T01:30:13.639Z,65.59
2023-05-10T01:30:58.589Z,66.20
2023-05-10T01:31:57.576Z,66.67
2023-05-10T01:32:57.596Z,67.77
2023-05-10T01:33:57.558Z,67.65
2023-05-10T01:34:57.545Z,67.47
2023-05-10T01:35:57.513Z,67.35
2023-05-10T01:36:57.493Z,67.44
2023-05-10T01:37:57.544Z,67.12
2023-05-10T01:38:57.536Z,66.78
2023-05-10T01:39:57.484Z,66.08
2023-05-10T01:40:57.502Z,65.70
2023-05-10T01:41:57.485Z,65.33
2023-05-10T01:42:57.509Z,65.14
2023-05-10T01:43:57.447Z,64.76
2023-05-10T01:44:57.468Z,64.59
2023-05-10T01:45:57.452Z,64.22
2023-05-10T01:46:57.670Z,64.46
2023-05-10T01:47:57.580Z,64.47
2023-05-10T01:48:57.461Z,64.49
2023-05-10T01:49:57.478Z,64.67
2023-05-10T01:50:57.428Z,65.42
2023-05-10T01:51:57.425Z,64.76
2023-05-10T01:52:57.411Z,64.97
2023-05-10T01:53:57.409Z,64.53
2023-05-10T01:54:57.401Z,64.19
2023-05-10T01:55:57.405Z,64.25
2023-05-10T01:56:57.350Z,64.50
2023-05-10T01:57:57.378Z,64.49
2023-05-10T01:58:57.350Z,64.22
2023-05-10T01:59:57.372Z,64.11
2023-05-10T02:00:57.454Z,63.87
2023-05-10T02:01:57.384Z,64.40
2023-05-10T02:02:57.538Z,64.09
2023-05-10T02:03:57.499Z,63.96
2023-05-10T02:04:57.472Z,63.87
2023-05-10T02:05:57.552Z,64.01
2023-05-10T02:06:57.519Z,64.22
2023-05-10T02:07:57.593Z,64.03
2023-05-10T02:08:57.589Z,63.99
2023-05-10T02:09:57.612Z,64.01
2023-05-10T02:10:57.648Z,64.45
2023-05-10T02:11:57.678Z,64.22
2023-05-10T02:12:57.733Z,63.96
2023-05-10T02:13:57.673Z,63.85
2023-05-10T02:14:57.707Z,64.78
2023-05-10T02:15:57.710Z,64.82
2023-05-10T02:16:57.757Z,64.46
2023-05-10T02:17:58.021Z,64.83
2023-05-10T02:18:57.779Z,65.70
2023-05-10T02:19:57.842Z,65.72
2023-05-10T02:20:57.859Z,64.58
2023-05-10T02:21:57.978Z,64.70
2023-05-10T02:22:57.973Z,64.26
2023-05-10T02:23:58.011Z,64.22
2023-05-10T02:24:58.060Z,64.19
2023-05-10T02:25:58.170Z,64.69
2023-05-10T02:26:58.208Z,65.91
2023-05-10T02:27:58.224Z,66.08
2023-05-10T02:28:58.255Z,66.34
2023-05-10T02:29:58.264Z,66.51
2023-05-10T02:30:58.319Z,66.98
2023-05-10T02:31:58.488Z,66.55
2023-05-10T02:32:58.475Z,66.79
2023-05-10T02:33:58.421Z,67.15
2023-05-10T02:34:58.502Z,67.93
2023-05-10T02:35:58.600Z,68.16
2023-05-10T02:36:58.587Z,67.57
2023-05-10T02:37:58.575Z,67.41
2023-05-10T02:38:58.573Z,67.58
2023-05-10T02:39:58.583Z,67.69
2023-05-10T02:40:58.634Z,67.58
2023-05-10T02:41:58.630Z,67.17
2023-05-10T02:42:58.638Z,66.95
2023-05-10T02:43:58.653Z,66.88
2023-05-10T02:44:58.665Z,67.00
2023-05-10T02:45:58.691Z,67.07
2023-05-10T02:46:58.666Z,67.20
2023-05-10T02:47:58.713Z,67.64
2023-05-10T02:48:58.676Z,68.40
2023-05-10T02:49:58.761Z,68.27
2023-05-10T02:50:58.725Z,68.31
2023-05-10T02:51:58.754Z,67.24
2023-05-10T02:52:58.782Z,67.15
2023-05-10T02:53:58.876Z,67.98
2023-05-10T02:54:58.961Z,68.75
2023-05-10T02:55:58.976Z,68.40
2023-05-10T02:56:59.005Z,68.31
2023-05-10T02:57:58.957Z,68.61
2023-05-10T02:58:59.058Z,68.29
2023-05-10T02:59:59.062Z,68.17
2023-05-10T03:00:59.087Z,67.81
2023-05-10T03:01:59.095Z,67.44
2023-05-10T03:02:59.194Z,67.16
2023-05-10T03:03:59.095Z,66.78
2023-05-10T03:04:59.426Z,66.60
2023-05-10T03:05:59.117Z,66.80
2023-05-10T03:06:59.115Z,66.53
2023-05-10T03:07:59.143Z,66.62
2023-05-10T03:08:59.232Z,66.90
2023-05-10T03:09:59.339Z,66.36
2023-05-10T03:10:59.353Z,66.54
2023-05-10T03:11:59.455Z,66.53
2023-05-10T03:12:59.468Z,67.08
2023-05-10T03:13:59.469Z,66.53
2023-05-10T03:14:59.555Z,66.70
2023-05-10T03:15:59.584Z,66.11
2023-05-10T03:16:59.550Z,65.81
2023-05-10T03:17:59.658Z,65.63
2023-05-10T03:18:59.608Z,65.90
2023-05-10T03:19:59.683Z,65.97
2023-05-10T03:20:59.725Z,66.28
2023-05-10T03:21:59.800Z,67.18
2023-05-10T03:22:59.846Z,67.66
2023-05-10T03:23:59.944Z,68.04
2023-05-10T03:24:59.956Z,67.67
2023-05-10T03:26:00.015Z,67.30
2023-05-10T03:27:00.029Z,66.91
2023-05-10T03:28:00.054Z,66.81
2023-05-10T03:29:00.124Z,67.44
2023-05-10T03:30:00.265Z,67.44
2023-05-10T03:31:00.227Z,67.57
2023-05-10T03:32:00.261Z,68.71
2023-05-10T03:33:00.352Z,69.25
2023-05-10T03:34:00.336Z,69.48
2023-05-10T03:35:00.337Z,69.71
2023-05-10T03:36:00.408Z,69.99
2023-05-10T03:37:00.394Z,69.92
2023-05-10T03:38:00.415Z,70.01
2023-05-10T03:39:00.415Z,70.22
2023-05-10T03:40:00.454Z,70.61
2023-05-10T03:41:00.439Z,70.02
2023-05-10T03:42:00.459Z,69.63
2023-05-10T03:43:00.461Z,69.20
2023-05-10T03:44:00.459Z,68.86
2023-05-10T03:45:00.519Z,67.90
2023-05-10T03:46:00.524Z,67.91
2023-05-10T03:47:00.727Z,67.55
2023-05-10T03:48:00.714Z,68.03
2023-05-10T03:49:00.806Z,68.14
2023-05-10T03:50:00.748Z,68.76
2023-05-10T03:51:00.804Z,69.57
2023-05-10T03:52:00.859Z,70.55
2023-05-10T03:53:00.871Z,70.86
2023-05-10T03:54:00.823Z,71.22
2023-05-10T03:55:00.884Z,71.25
2023-05-10T03:56:00.833Z,71.03
2023-05-10T03:57:00.855Z,70.78
2023-05-10T03:58:00.999Z,71.13
2023-05-10T03:59:00.909Z,70.85
2023-05-10T04:00:00.995Z,70.62
2023-05-10T04:01:00.989Z,70.55
2023-05-10T04:02:01.064Z,70.73
2023-05-10T04:03:01.087Z,70.37
2023-05-10T04:04:01.144Z,70.61
2023-05-10T04:05:01.157Z,70.49
2023-05-10T04:06:01.262Z,70.21
2023-05-10T04:07:01.237Z,69.99
2023-05-10T04:08:01.276Z,70.12
2023-05-10T04:09:01.290Z,70.02
2023-05-10T04:10:01.243Z,69.81
2023-05-10T04:11:01.292Z,69.86
2023-05-10T04:12:01.366Z,69.36
2023-05-10T04:13:01.489Z,69.24
2023-05-10T04:14:01.528Z,68.46
2023-05-10T04:15:01.587Z,68.11
2023-05-10T04:16:01.594Z,68.13
2023-05-10T04:17:02.250Z,67.85
2023-05-10T04:18:01.872Z,67.80
2023-05-10T04:19:01.836Z,68.14
2023-05-10T04:20:01.878Z,68.48
2023-05-10T04:21:01.933Z,67.53
2023-05-10T04:22:01.996Z,66.77
2023-05-10T04:23:02.054Z,67.83
2023-05-10T04:24:02.126Z,67.31
2023-05-10T04:25:02.125Z,66.88
2023-05-10T04:26:02.175Z,66.44
2023-05-10T04:27:02.232Z,67.24
2023-05-10T04:28:02.336Z,67.39
2023-05-10T04:29:02.351Z,67.52
2023-05-10T04:30:02.415Z,67.54
2023-05-10T04:31:02.522Z,67.27
2023-05-10T04:32:02.570Z,66.51
2023-05-10T04:33:02.760Z,67.10
2023-05-10T04:34:02.707Z,66.91
2023-05-10T04:35:02.796Z,66.57
2023-05-10T04:36:02.824Z,65.99
2023-05-10T04:37:02.910Z,66.05
2023-05-10T04:38:02.911Z,66.26
2023-05-10T04:39:02.961Z,66.63
2023-05-10T04:40:03.050Z,66.14
2023-05-10T04:41:03.086Z,66.93
2023-05-10T04:42:03.150Z,66.45
2023-05-10T04:43:03.198Z,66.36
2023-05-10T04:44:03.267Z,65.92
2023-05-10T04:45:03.265Z,65.64
2023-05-10T04:46:03.415Z,65.64
2023-05-10T04:47:03.327Z,65.34
2023-05-10T04:48:03.434Z,65.21
2023-05-10T04:49:03.481Z,64.85
2023-05-10T04:50:03.518Z,64.77
2023-05-10T04:51:03.632Z,64.75
2023-05-10T04:52:03.642Z,64.85
2023-05-10T04:53:03.739Z,65.44
2023-05-10T04:54:06.645Z,65.45
2023-05-10T04:55:03.748Z,65.36
2023-05-10T04:56:03.732Z,65.46
2023-05-10T04:57:03.749Z,65.76
2023-05-10T04:58:03.719Z,65.80
2023-05-10T04:59:03.712Z,65.74
2023-05-10T05:00:03.719Z,65.93
2023-05-10T05:02:31.442Z,65.37
2023-05-10T05:03:23.777Z,64.17
2023-05-10T05:04:23.719Z,64.45
2023-05-10T05:05:23.737Z,63.50
2023-05-10T05:06:23.728Z,63.76
2023-05-10T05:07:23.703Z,63.81
2023-05-10T05:08:23.640Z,64.15
2023-05-10T05:09:23.663Z,62.94
2023-05-10T05:10:23.667Z,63.33
2023-05-10T05:11:23.680Z,63.79
2023-05-10T05:12:23.672Z,63.49
2023-05-10T05:13:23.845Z,63.47
2023-05-10T05:14:23.608Z,64.51
2023-05-10T05:15:23.644Z,64.40
2023-05-10T05:16:23.683Z,63.59
2023-05-10T05:17:23.627Z,63.64
2023-05-10T05:18:23.727Z,63.64
2023-05-10T05:19:23.725Z,64.09
2023-05-10T05:20:23.626Z,63.88
2023-05-10T05:21:23.637Z,64.86
2023-05-10T05:22:23.632Z,64.62
2023-05-10T05:23:23.611Z,64.62
2023-05-10T05:24:23.665Z,64.61
2023-05-10T05:25:23.629Z,64.54
2023-05-10T05:26:23.603Z,64.45
2023-05-10T05:27:23.682Z,64.69
2023-05-10T05:28:23.687Z,65.29
2023-05-10T05:29:23.785Z,64.97
2023-05-10T05:30:23.808Z,65.22
2023-05-10T05:31:23.947Z,64.78
2023-05-10T05:32:23.967Z,64.88
2023-05-10T05:33:24.020Z,64.96
2023-05-10T05:34:24.462Z,65.39
2023-05-10T05:35:24.108Z,66.54
2023-05-10T05:36:24.142Z,66.47
2023-05-10T05:37:24.165Z,66.49
2023-05-10T05:38:24.122Z,67.34
2023-05-10T05:39:24.374Z,67.39
2023-05-10T05:40:24.272Z,66.73
2023-05-10T05:41:24.384Z,66.79
2023-05-10T05:42:24.396Z,66.90
2023-05-10T05:43:25.391Z,66.76
2023-05-10T05:44:24.907Z,66.60
2023-05-10T05:45:25.337Z,66.84
2023-05-10T05:47:44.147Z,67.48
2023-05-10T05:48:44.115Z,67.82
2023-05-10T05:49:43.899Z,66.88
2023-05-10T05:50:43.865Z,67.01
2023-05-10T05:51:43.892Z,66.19
2023-05-10T05:52:43.851Z,66.78
2023-05-10T05:53:44.077Z,66.83
2023-05-10T05:54:43.838Z,66.21
2023-05-10T05:55:43.850Z,65.77
2023-05-10T05:56:43.870Z,65.62
2023-05-10T05:57:43.807Z,66.07
2023-05-10T05:58:43.856Z,65.47
2023-05-10T05:59:44.105Z,65.85
2023-05-10T06:00:43.793Z,66.33
2023-05-10T06:01:43.835Z,65.95
2023-05-10T06:02:43.875Z,65.84
2023-05-10T06:03:43.877Z,65.89
2023-05-10T06:04:44.910Z,66.64
2023-05-10T06:05:43.786Z,66.23
2023-05-10T06:06:43.805Z,66.87
2023-05-10T06:07:43.739Z,66.13
2023-05-10T06:08:43.734Z,66.05
2023-05-10T06:09:43.767Z,66.79
2023-05-10T06:10:43.722Z,65.24
2023-05-10T06:11:43.708Z,65.16
2023-05-10T06:12:43.704Z,64.81
2023-05-10T06:13:43.699Z,64.78
2023-05-10T06:14:43.699Z,64.60
2023-05-10T06:15:43.793Z,64.97
2023-05-10T06:16:43.754Z,64.43
2023-05-10T06:17:43.769Z,65.10
2023-05-10T06:18:43.710Z,65.21
2023-05-10T06:19:43.702Z,65.62
2023-05-10T06:20:43.693Z,65.92
2023-05-10T06:21:43.613Z,65.93
2023-05-10T06:22:44.562Z,65.75
2023-05-10T06:23:44.058Z,66.13
2023-05-10T06:24:43.636Z,65.73
2023-05-10T06:25:43.634Z,65.80
2023-05-10T06:26:43.634Z,65.15
2023-05-10T06:27:44.344Z,65.27
2023-05-10T06:28:43.611Z,65.37
2023-05-10T06:29:44.135Z,65.23
2023-05-10T06:30:43.580Z,65.06
2023-05-10T06:31:43.639Z,65.48
2023-05-10T06:32:43.608Z,65.42
2023-05-10T06:33:43.637Z,64.88
2023-05-10T06:34:43.562Z,65.25
2023-05-10T06:35:43.674Z,66.03
2023-05-10T06:36:43.524Z,66.61
2023-05-10T06:37:43.550Z,65.69
2023-05-10T06:38:43.565Z,65.57
2023-05-10T06:39:43.551Z,65.61
2023-05-10T06:40:43.761Z,65.70
2023-05-10T06:41:43.686Z,65.64
2023-05-10T06:42:43.721Z,65.81
2023-05-10T06:43:43.787Z,65.90
2023-05-10T06:44:43.856Z,65.84
2023-05-10T06:45:43.892Z,66.73
2023-05-10T06:48:03.518Z,66.63
2023-05-10T06:49:04.452Z,65.95
2023-05-10T06:50:03.410Z,65.62
2023-05-10T06:51:03.414Z,65.10
2023-05-10T06:52:03.396Z,66.09
2023-05-10T06:53:03.402Z,66.82
2023-05-10T06:54:03.417Z,67.05
2023-05-10T06:55:03.429Z,66.73
2023-05-10T06:56:04.417Z,65.97
2023-05-10T06:57:04.165Z,65.32
2023-05-10T06:58:03.419Z,64.92
2023-05-10T06:59:03.454Z,64.92
2023-05-10T07:00:03.609Z,64.31
2023-05-10T07:01:03.610Z,63.75
2023-05-10T07:02:03.668Z,63.59
2023-05-10T07:03:03.720Z,63.73
2023-05-10T07:04:04.043Z,62.70
2023-05-10T07:05:03.833Z,62.63
2023-05-10T07:06:03.904Z,63.06
2023-05-10T07:07:03.936Z,63.14
2023-05-10T07:08:03.970Z,62.92
2023-05-10T07:09:04.027Z,63.26
2023-05-10T07:10:04.088Z,62.85
2023-05-10T07:11:04.114Z,62.89
2023-05-10T07:12:04.187Z,62.58
2023-05-10T07:13:04.196Z,62.98
2023-05-10T07:14:04.209Z,62.89
2023-05-10T07:15:04.253Z,62.14
2023-05-10T07:16:04.235Z,63.42
2023-05-10T07:17:04.243Z,62.47
2023-05-10T07:18:04.489Z,61.97
2023-05-10T07:19:04.302Z,62.05
2023-05-10T07:20:04.530Z,62.08
2023-05-10T07:21:04.382Z,61.57
2023-05-10T07:22:04.424Z,60.08
2023-05-10T07:23:04.472Z,60.63
2023-05-10T07:24:04.576Z,60.03
2023-05-10T07:25:04.802Z,60.39
2023-05-10T07:26:04.662Z,61.15
2023-05-10T07:27:04.704Z,60.80
2023-05-10T07:28:04.664Z,61.16
2023-05-10T07:29:04.686Z,61.09
2023-05-10T07:30:04.776Z,63.00
2023-05-10T07:31:04.797Z,61.59
2023-05-10T07:32:04.812Z,61.66
2023-05-10T07:33:04.772Z,61.81
2023-05-10T07:34:04.809Z,60.50
2023-05-10T07:35:04.825Z,60.86
2023-05-10T07:36:04.757Z,61.28
2023-05-10T07:37:04.781Z,62.37
2023-05-10T07:38:04.783Z,63.16
2023-05-10T07:39:04.793Z,63.37
2023-05-10T07:40:04.868Z,63.19
2023-05-10T07:41:04.838Z,62.78
2023-05-10T07:42:04.911Z,62.26
2023-05-10T07:43:04.965Z,62.31
2023-05-10T07:44:05.012Z,62.10
2023-05-10T07:45:05.085Z,61.38
2023-05-10T07:46:05.213Z,60.75
2023-05-10T07:47:05.169Z,61.11
2023-05-10T07:48:05.265Z,61.29
2023-05-10T07:49:05.269Z,61.49
2023-05-10T07:50:05.537Z,60.11
2023-05-10T07:51:05.348Z,59.00
2023-05-10T07:52:05.367Z,58.79
2023-05-10T07:53:05.449Z,59.83
2023-05-10T07:54:05.566Z,60.54
2023-05-10T07:55:05.571Z,60.84
2023-05-10T07:56:05.620Z,59.92
2023-05-10T07:57:05.629Z,59.27
2023-05-10T07:58:05.685Z,58.85
2023-05-10T07:59:05.635Z,57.65
2023-05-10T08:00:05.720Z,58.12
2023-05-10T08:01:05.757Z,57.42
2023-05-10T08:02:05.854Z,58.13
2023-05-10T08:03:05.909Z,58.77
2023-05-10T08:04:05.920Z,59.10
2023-05-10T08:05:05.855Z,59.72
2023-05-10T08:06:05.912Z,59.16
2023-05-10T08:07:05.975Z,58.78
2023-05-10T08:08:06.010Z,57.80
2023-05-10T08:09:06.043Z,57.79
2023-05-10T08:10:06.077Z,58.95
2023-05-10T08:11:06.074Z,59.18
2023-05-10T08:12:06.195Z,60.34
2023-05-10T08:13:06.253Z,60.90
2023-05-10T08:14:06.234Z,61.74
2023-05-10T08:15:06.260Z,61.70
2023-05-10T08:16:06.409Z,61.89
2023-05-10T08:17:06.941Z,60.92
2023-05-10T08:18:06.511Z,61.71
2023-05-10T08:19:06.513Z,63.26
2023-05-10T08:20:06.612Z,61.71
2023-05-10T08:21:06.526Z,61.35
2023-05-10T08:22:06.577Z,62.23
2023-05-10T08:23:06.583Z,61.92
2023-05-10T08:24:06.626Z,61.10
2023-05-10T08:25:07.420Z,61.32
2023-05-10T08:26:06.811Z,61.18
2023-05-10T08:27:06.822Z,61.52
2023-05-10T08:28:06.846Z,62.18
2023-05-10T08:29:06.845Z,62.32
2023-05-10T08:30:07.143Z,63.07
2023-05-10T08:31:07.017Z,62.79
2023-05-10T08:32:06.982Z,62.81
2023-05-10T08:33:07.105Z,63.04
2023-05-10T08:34:07.062Z,62.37
2023-05-10T08:35:07.154Z,63.04
2023-05-10T08:36:07.622Z,63.15
2023-05-10T08:37:07.185Z,63.63
2023-05-10T08:38:07.262Z,63.52
2023-05-10T08:39:13.532Z,63.51
2023-05-10T08:40:08.230Z,63.94
2023-05-10T08:41:07.306Z,63.84
2023-05-10T08:42:07.229Z,63.67
2023-05-10T08:43:07.384Z,63.51
2023-05-10T08:44:07.205Z,62.92
2023-05-10T08:45:07.530Z,62.71
2023-05-10T08:46:07.825Z,62.61
2023-05-10T08:47:07.327Z,62.48
2023-05-10T08:48:07.242Z,62.66
2023-05-10T08:49:07.190Z,62.62
2023-05-10T08:50:07.207Z,62.37
2023-05-10T08:51:07.607Z,62.71
2023-05-10T08:52:07.265Z,62.14
2023-05-10T08:53:07.292Z,61.64
2023-05-10T08:54:07.302Z,61.82
2023-05-10T08:55:07.344Z,62.10
2023-05-10T08:56:07.388Z,61.70
2023-05-10T08:57:07.404Z,61.73
2023-05-10T08:58:07.367Z,61.00
2023-05-10T08:59:07.372Z,61.17
2023-05-10T09:00:07.450Z,60.39
2023-05-10T09:01:07.844Z,60.51
2023-05-10T09:02:07.473Z,61.09
2023-05-10T09:03:07.571Z,60.85
2023-05-10T09:04:07.692Z,60.47
2023-05-10T09:05:07.686Z,60.47
2023-05-10T09:06:08.125Z,61.18
2023-05-10T09:07:07.656Z,60.38
2023-05-10T09:08:07.662Z,61.07
2023-05-10T09:09:07.669Z,60.11
2023-05-10T09:10:07.716Z,60.23
2023-05-10T09:11:08.544Z,60.96
2023-05-10T09:12:08.717Z,58.93
2023-05-10T09:13:07.723Z,59.19
2023-05-10T09:14:07.651Z,59.27
2023-05-10T09:15:07.719Z,59.31
2023-05-10T09:16:20.286Z,59.01
2023-05-10T09:17:08.754Z,59.03
2023-05-10T09:18:07.743Z,58.32
2023-05-10T09:19:07.752Z,58.84
2023-05-10T09:20:07.708Z,59.57
2023-05-10T09:21:07.692Z,59.24
2023-05-10T09:22:07.685Z,57.84
2023-05-10T09:23:07.736Z,57.66
2023-05-10T09:24:07.754Z,57.20
2023-05-10T09:25:07.814Z,57.70
2023-05-10T09:26:07.856Z,58.12
2023-05-10T09:27:07.935Z,57.23
2023-05-10T09:28:07.992Z,58.03
2023-05-10T09:29:08.090Z,57.89
2023-05-10T09:30:08.064Z,58.15
2023-05-10T09:31:08.168Z,57.91
2023-05-10T09:32:08.105Z,57.87
2023-05-10T09:33:08.137Z,58.16
2023-05-10T09:34:08.205Z,57.89
2023-05-10T09:35:08.126Z,58.69
2023-05-10T09:36:08.613Z,57.60
2023-05-10T09:37:08.133Z,58.33
2023-05-10T09:38:08.162Z,58.41
2023-05-10T09:39:08.168Z,59.03
2023-05-10T09:40:08.228Z,58.22
2023-05-10T09:41:08.190Z,58.03
2023-05-10T09:42:08.223Z,58.04
2023-05-10T09:43:08.410Z,58.47
2023-05-10T09:44:08.313Z,58.79
2023-05-10T09:45:08.363Z,58.57
2023-05-10T09:46:08.387Z,58.73
2023-05-10T09:47:08.421Z,59.02
2023-05-10T09:48:08.459Z,59.83
2023-05-10T09:49:08.492Z,59.58
2023-05-10T09:50:08.506Z,59.77
2023-05-10T09:51:08.647Z,59.84
2023-05-10T09:52:08.605Z,59.87
2023-05-10T09:53:08.578Z,59.64
2023-05-10T09:54:08.633Z,59.78
2023-05-10T09:55:08.654Z,59.35
2023-05-10T09:56:08.647Z,60.48
2023-05-10T09:57:08.671Z,60.69
2023-05-10T09:58:08.714Z,61.53
2023-05-10T09:59:09.461Z,60.47
2023-05-10T10:00:08.729Z,59.78
2023-05-10T10:01:08.839Z,60.96
2023-05-10T10:02:08.718Z,59.96
2023-05-10T10:03:08.822Z,59.53
2023-05-10T10:04:08.730Z,59.54
2023-05-10T10:05:08.762Z,59.19
2023-05-10T10:06:18.840Z,58.85
2023-05-10T10:07:09.706Z,59.34
2023-05-10T10:08:08.666Z,59.17
2023-05-10T10:09:08.706Z,59.28
2023-05-10T10:10:08.733Z,59.41
2023-05-10T10:11:09.099Z,59.48
2023-05-10T10:12:08.641Z,60.31
2023-05-10T10:13:08.620Z,59.05
2023-05-10T10:14:08.704Z,57.56
2023-05-10T10:15:08.656Z,57.34
2023-05-10T10:16:08.662Z,57.84
2023-05-10T10:17:09.090Z,56.41
2023-05-10T10:18:08.658Z,56.40
2023-05-10T10:19:08.614Z,56.94
2023-05-10T10:20:10.466Z,56.89
2023-05-10T10:21:08.572Z,56.95
2023-05-10T10:22:08.621Z,57.78
2023-05-10T10:23:08.556Z,58.09
2023-05-10T10:24:08.578Z,58.33
2023-05-10T10:25:08.563Z,56.85
2023-05-10T10:26:08.644Z,57.53
2023-05-10T10:27:08.568Z,56.48
2023-05-10T10:28:08.513Z,56.87
2023-05-10T10:29:08.585Z,56.15
2023-05-10T10:30:08.587Z,54.29
2023-05-10T10:31:08.584Z,54.75
2023-05-10T10:32:08.605Z,55.24
2023-05-10T10:33:20.183Z,56.28
2023-05-10T10:34:09.534Z,56.27
2023-05-10T10:35:08.530Z,54.64
2023-05-10T10:36:08.508Z,54.48
2023-05-10T10:37:08.628Z,54.08
2023-05-10T10:38:08.532Z,54.71
2023-05-10T10:39:08.546Z,54.34
2023-05-10T10:40:08.449Z,55.73
2023-05-10T10:41:08.446Z,57.10
2023-05-10T10:42:08.637Z,58.35
2023-05-10T10:43:08.467Z,59.26
2023-05-10T10:44:08.452Z,57.74
2023-05-10T10:45:08.481Z,56.72
2023-05-10T10:46:08.440Z,56.49
2023-05-10T10:47:08.691Z,57.63
2023-05-10T10:48:08.542Z,55.00
2023-05-10T10:49:08.476Z,57.83
2023-05-10T10:50:08.552Z,56.66
2023-05-10T10:51:10.087Z,55.21
2023-05-10T10:52:08.532Z,55.99
2023-05-10T10:53:08.550Z,55.91
2023-05-10T10:54:08.619Z,56.09
2023-05-10T10:55:08.629Z,55.21
2023-05-10T10:56:08.678Z,55.09
2023-05-10T10:57:08.716Z,53.68
2023-05-10T10:58:08.642Z,54.70
2023-05-10T10:59:08.688Z,55.20
2023-05-10T11:00:08.724Z,52.91
2023-05-10T11:01:08.756Z,51.37
2023-05-10T11:02:08.812Z,49.87
2023-05-10T11:03:08.916Z,50.17
2023-05-10T11:04:08.818Z,50.46
2023-05-10T11:05:08.822Z,51.23
2023-05-10T11:06:08.892Z,51.64
2023-05-10T11:07:09.155Z,51.59
2023-05-10T11:08:08.943Z,51.55
2023-05-10T11:09:08.985Z,51.87
2023-05-10T11:10:08.949Z,52.44
2023-05-10T11:11:09.000Z,54.24
2023-05-10T11:12:09.237Z,53.38
2023-05-10T11:13:09.101Z,52.54
2023-05-10T11:14:09.145Z,52.24
2023-05-10T11:15:10.448Z,53.88
2023-05-10T11:16:09.242Z,54.09
2023-05-10T11:17:09.298Z,53.96
2023-05-10T11:18:09.343Z,53.15
2023-05-10T11:19:09.462Z,52.40
2023-05-10T11:20:09.458Z,53.30
2023-05-10T11:21:09.490Z,52.66
2023-05-10T11:22:09.613Z,52.41
2023-05-10T11:23:09.612Z,52.91
2023-05-10T11:24:09.662Z,54.25
2023-05-10T11:25:09.679Z,53.99
2023-05-10T11:26:09.860Z,54.60
2023-05-10T11:27:10.378Z,52.46
2023-05-10T11:28:09.990Z,52.66
2023-05-10T11:29:10.197Z,53.70
2023-05-10T11:30:09.953Z,53.67
2023-05-10T11:31:09.924Z,53.99
2023-05-10T11:32:10.229Z,54.61
2023-05-10T11:33:10.002Z,55.11
2023-05-10T11:34:09.890Z,56.15
2023-05-10T11:35:09.901Z,54.46
2023-05-10T11:36:09.896Z,55.31
2023-05-10T11:37:09.868Z,56.27
2023-05-10T11:38:10.151Z,55.61
2023-05-10T11:39:09.889Z,54.42
2023-05-10T11:40:09.883Z,52.36
2023-05-10T11:41:10.030Z,52.73
2023-05-10T11:42:09.901Z,52.87
2023-05-10T11:43:10.123Z,54.09
2023-05-10T11:44:09.964Z,54.57
2023-05-10T11:45:10.034Z,54.95
2023-05-10T11:46:10.056Z,53.50
2023-05-10T11:47:10.117Z,53.27
2023-05-10T11:48:10.201Z,54.60
2023-05-10T11:49:10.149Z,55.27
2023-05-10T11:50:10.159Z,56.17
2023-05-10T11:51:10.186Z,55.78
2023-05-10T11:52:10.209Z,54.78
2023-05-10T11:53:10.228Z,55.02
2023-05-10T11:54:10.292Z,54.49
2023-05-10T11:55:10.349Z,54.37
2023-05-10T11:56:10.362Z,55.04
2023-05-10T11:57:10.408Z,55.44
2023-05-10T11:58:10.493Z,54.38
2023-05-10T11:59:10.499Z,55.08
2023-05-10T12:00:10.567Z,55.12
2023-05-10T12:01:10.606Z,56.59
2023-05-10T12:02:10.695Z,56.16
2023-05-10T12:03:11.221Z,58.41
2023-05-10T12:04:11.001Z,58.56
2023-05-10T12:05:10.900Z,57.77
2023-05-10T12:06:10.932Z,57.81
2023-05-10T12:07:10.927Z,57.84
2023-05-10T12:08:11.002Z,58.23
2023-05-10T12:09:11.057Z,57.70
2023-05-10T12:10:11.138Z,58.33
2023-05-10T12:11:11.116Z,59.36
2023-05-10T12:12:11.132Z,59.73
2023-05-10T12:13:11.158Z,59.76
2023-05-10T12:14:11.162Z,60.59
2023-05-10T12:15:11.173Z,59.72
2023-05-10T12:16:11.234Z,60.29
2023-05-10T12:17:11.157Z,61.22
2023-05-10T12:18:11.273Z,60.40
2023-05-10T12:19:11.389Z,61.06
2023-05-10T12:20:11.213Z,60.72
2023-05-10T12:21:11.275Z,60.51
2023-05-10T12:22:11.246Z,60.99
2023-05-10T12:23:11.240Z,60.68
2023-05-10T12:24:11.303Z,60.95
2023-05-10T12:25:11.268Z,61.02
2023-05-10T12:26:11.355Z,62.72
2023-05-10T12:27:11.433Z,62.41
2023-05-10T12:28:11.387Z,60.74
2023-05-10T12:29:11.395Z,61.20
2023-05-10T12:30:11.472Z,62.66
2023-05-10T12:31:11.515Z,60.52
2023-05-10T12:32:11.553Z,61.23
2023-05-10T12:33:11.679Z,61.12
2023-05-10T12:34:11.613Z,61.46
2023-05-10T12:35:11.637Z,60.83
2023-05-10T12:36:11.724Z,57.54
2023-05-10T12:37:11.692Z,58.81
2023-05-10T12:38:11.753Z,58.61
2023-05-10T12:39:11.762Z,59.15
2023-05-10T12:40:11.796Z,58.39
2023-05-10T12:41:11.916Z,57.92
2023-05-10T12:42:11.892Z,58.14
2023-05-10T12:43:11.957Z,58.36
2023-05-10T12:44:11.958Z,59.16
2023-05-10T12:45:12.020Z,60.10
2023-05-10T12:46:12.128Z,60.80
2023-05-10T12:47:12.126Z,58.39
2023-05-10T12:48:12.672Z,58.30
2023-05-10T12:49:12.201Z,58.92
2023-05-10T12:50:12.365Z,59.06
2023-05-10T12:51:12.369Z,58.71
2023-05-10T12:52:12.424Z,58.27
2023-05-10T12:53:12.521Z,58.81
2023-05-10T12:54:12.528Z,59.38
2023-05-10T12:55:12.551Z,59.98
2023-05-10T12:56:12.591Z,60.30
2023-05-10T12:57:12.641Z,59.89